createdAt,value
2022-10-22T00:00:43.958Z,0.00
2022-10-22T00:01:43.976Z,0.00
2022-10-22T00:02:44.006Z,0.00
2022-10-22T00:03:43.959Z,0.00
2022-10-22T00:05:43.917Z,0.00
2022-10-22T00:06:43.915Z,0.00
2022-10-22T00:07:43.987Z,0.00
2022-10-22T00:08:43.970Z,0.00
2022-10-22T00:09:43.857Z,0.00
2022-10-22T00:10:43.872Z,0.00
2022-10-22T00:11:43.879Z,0.00
2022-10-22T00:12:43.832Z,0.00
2022-10-22T00:13:43.918Z,0.00
2022-10-22T00:14:43.812Z,0.00
2022-10-22T00:15:43.783Z,0.00
2022-10-22T00:16:43.799Z,0.00
2022-10-22T00:17:43.798Z,0.00
2022-10-22T00:18:43.748Z,0.00
2022-10-22T00:19:43.747Z,0.00
2022-10-22T00:20:43.730Z,0.00
2022-10-22T00:22:42.949Z,0.00
2022-10-22T00:23:42.900Z,0.00
2022-10-22T00:24:42.882Z,0.00
2022-10-22T00:25:42.874Z,0.00
2022-10-22T00:26:42.860Z,0.00
2022-10-22T00:27:43.080Z,0.00
2022-10-22T00:28:42.823Z,0.00
2022-10-22T00:29:42.813Z,0.00
2022-10-22T00:30:42.788Z,0.00
2022-10-22T00:31:42.828Z,0.00
2022-10-22T00:32:43.067Z,0.00
2022-10-22T00:33:42.764Z,0.00
2022-10-22T00:34:42.747Z,0.00
2022-10-22T00:35:42.744Z,0.00
2022-10-22T00:36:42.748Z,0.00
2022-10-22T00:37:42.726Z,0.00
2022-10-22T00:38:42.707Z,0.00
2022-10-22T00:39:42.706Z,0.00
2022-10-22T00:40:42.685Z,0.00
2022-10-22T00:41:42.695Z,0.00
2022-10-22T00:42:43.184Z,0.00
2022-10-22T00:43:42.657Z,0.00
2022-10-22T00:44:42.635Z,0.00
2022-10-22T00:45:42.636Z,0.00
2022-10-22T00:46:42.625Z,0.00
2022-10-22T00:47:42.624Z,0.00
2022-10-22T00:48:42.591Z,0.00
2022-10-22T00:49:42.575Z,0.00
2022-10-22T00:50:42.578Z,0.00
2022-10-22T00:51:42.577Z,0.00
2022-10-22T00:52:42.888Z,0.00
2022-10-22T00:53:42.536Z,0.00
2022-10-22T00:54:42.531Z,0.00
2022-10-22T00:55:42.509Z,0.00
2022-10-22T00:56:42.528Z,0.00
2022-10-22T00:57:42.481Z,0.00
2022-10-22T00:58:42.479Z,0.00
2022-10-22T00:59:42.468Z,0.00
2022-10-22T01:00:42.507Z,0.00
2022-10-22T01:01:42.447Z,0.00
2022-10-22T01:02:42.802Z,0.00
2022-10-22T01:03:42.421Z,0.00
2022-10-22T01:04:42.408Z,0.00
2022-10-22T01:05:42.406Z,0.00
2022-10-22T01:06:42.408Z,0.00
2022-10-22T01:07:42.374Z,0.00
2022-10-22T01:08:42.383Z,0.00
2022-10-22T01:09:42.366Z,0.00
2022-10-22T01:10:42.340Z,0.00
2022-10-22T01:11:42.344Z,0.00
2022-10-22T01:12:42.774Z,0.00
2022-10-22T01:13:42.306Z,0.00
2022-10-22T01:14:42.292Z,0.00
2022-10-22T01:15:42.280Z,0.00
2022-10-22T01:16:42.282Z,0.00
2022-10-22T01:17:42.580Z,0.00
2022-10-22T01:18:42.248Z,0.00
2022-10-22T01:19:42.234Z,0.00
2022-10-22T01:20:42.220Z,0.00
2022-10-22T01:21:42.230Z,0.00
2022-10-22T01:22:42.198Z,0.00
2022-10-22T01:23:42.190Z,0.00
2022-10-22T01:24:42.184Z,0.00
2022-10-22T01:25:42.171Z,0.00
2022-10-22T01:26:42.178Z,0.00
2022-10-22T01:27:42.523Z,0.00
2022-10-22T01:28:42.140Z,0.00
2022-10-22T01:29:42.136Z,0.00
2022-10-22T01:30:42.111Z,0.00
2022-10-22T01:31:42.122Z,0.00
2022-10-22T01:32:42.136Z,0.00
2022-10-22T01:33:42.087Z,0.00
2022-10-22T01:34:42.061Z,0.00
2022-10-22T01:35:42.051Z,0.00
2022-10-22T01:36:42.073Z,0.00
2022-10-22T01:37:42.404Z,0.00
2022-10-22T01:38:42.017Z,0.00
2022-10-22T01:39:42.014Z,0.00
2022-10-22T01:40:41.993Z,0.00
2022-10-22T01:41:41.994Z,0.00
2022-10-22T01:42:41.976Z,0.00
2022-10-22T01:43:41.959Z,0.00
2022-10-22T01:44:41.960Z,0.00
2022-10-22T01:45:41.934Z,0.00
2022-10-22T01:46:41.924Z,0.00
2022-10-22T01:47:42.399Z,0.00
2022-10-22T01:48:41.902Z,0.00
2022-10-22T01:49:41.885Z,0.00
2022-10-22T01:50:41.888Z,0.00
2022-10-22T01:51:41.867Z,0.00
2022-10-22T01:52:41.878Z,0.00
2022-10-22T01:53:41.870Z,0.00
2022-10-22T01:54:41.824Z,0.00
2022-10-22T01:55:41.820Z,0.00
2022-10-22T01:56:41.813Z,0.00
2022-10-22T01:57:42.159Z,0.00
2022-10-22T01:58:41.788Z,0.00
2022-10-22T01:59:41.778Z,0.00
2022-10-22T02:00:41.809Z,0.00
2022-10-22T02:01:41.746Z,0.00
2022-10-22T02:02:41.777Z,0.00
2022-10-22T02:03:41.729Z,0.00
2022-10-22T02:04:41.726Z,0.00
2022-10-22T02:05:41.697Z,0.00
2022-10-22T02:06:41.695Z,0.00
2022-10-22T02:07:42.037Z,0.00
2022-10-22T02:08:41.709Z,0.00
2022-10-22T02:09:41.655Z,0.00
2022-10-22T02:10:41.637Z,0.00
2022-10-22T02:11:41.637Z,0.00
2022-10-22T02:12:41.865Z,0.00
2022-10-22T02:13:41.634Z,0.00
2022-10-22T02:14:41.608Z,0.00
2022-10-22T02:15:41.594Z,0.00
2022-10-22T02:16:41.579Z,0.00
2022-10-22T02:17:41.579Z,0.00
2022-10-22T02:18:41.559Z,0.00
2022-10-22T02:19:41.573Z,0.00
2022-10-22T02:20:41.531Z,0.00
2022-10-22T02:21:41.516Z,0.00
2022-10-22T02:22:41.814Z,0.00
2022-10-22T02:23:41.509Z,0.00
2022-10-22T02:24:41.479Z,0.00
2022-10-22T02:25:41.466Z,0.00
2022-10-22T02:26:41.475Z,0.00
2022-10-22T02:27:41.452Z,0.00
2022-10-22T02:28:41.440Z,0.00
2022-10-22T02:29:41.448Z,0.00
2022-10-22T02:30:41.411Z,0.00
2022-10-22T02:31:41.411Z,0.00
2022-10-22T02:32:41.631Z,0.00
2022-10-22T02:33:41.402Z,0.00
2022-10-22T02:34:41.370Z,0.00
2022-10-22T02:35:41.358Z,0.00
2022-10-22T02:36:41.340Z,0.00
2022-10-22T02:37:41.351Z,0.00
2022-10-22T02:38:41.323Z,0.00
2022-10-22T02:39:41.320Z,0.00
2022-10-22T02:40:41.301Z,0.00
2022-10-22T02:41:41.288Z,0.00
2022-10-22T02:42:41.440Z,0.00
2022-10-22T02:43:41.266Z,0.00
2022-10-22T02:44:41.270Z,0.00
2022-10-22T02:45:41.242Z,0.00
2022-10-22T02:46:41.237Z,0.00
2022-10-22T02:47:41.223Z,0.00
2022-10-22T02:48:41.203Z,0.00
2022-10-22T02:49:41.215Z,0.00
2022-10-22T02:50:41.183Z,0.00
2022-10-22T02:51:41.178Z,0.00
2022-10-22T02:52:41.396Z,0.00
2022-10-22T02:53:41.155Z,0.00
2022-10-22T02:54:41.143Z,0.00
2022-10-22T02:55:41.144Z,0.00
2022-10-22T02:56:41.115Z,0.00
2022-10-22T02:57:41.323Z,0.00
2022-10-22T02:58:41.093Z,0.00
2022-10-22T02:59:41.103Z,0.00
2022-10-22T03:00:41.123Z,0.00
2022-10-22T03:01:41.043Z,0.00
2022-10-22T03:02:41.041Z,0.00
2022-10-22T03:03:41.028Z,0.00
2022-10-22T03:04:41.035Z,0.00
2022-10-22T03:05:41.010Z,0.00
2022-10-22T03:06:40.996Z,0.00
2022-10-22T03:07:41.204Z,0.00
2022-10-22T03:08:41.029Z,0.00
2022-10-22T03:09:40.985Z,0.00
2022-10-22T03:10:40.955Z,0.00
2022-10-22T03:11:40.942Z,0.00
2022-10-22T03:12:40.935Z,0.00
2022-10-22T03:13:40.906Z,0.00
2022-10-22T03:14:40.906Z,0.00
2022-10-22T03:15:40.917Z,0.00
2022-10-22T03:16:40.885Z,0.00
2022-10-22T03:17:41.127Z,0.00
2022-10-22T03:18:40.867Z,0.00
2022-10-22T03:19:40.857Z,0.00
2022-10-22T03:20:40.861Z,0.00
2022-10-22T03:21:40.824Z,0.00
2022-10-22T03:22:40.821Z,0.00
2022-10-22T03:23:40.805Z,0.00
2022-10-22T03:24:40.790Z,0.00
2022-10-22T03:25:40.778Z,0.00
2022-10-22T03:26:40.792Z,0.00
2022-10-22T03:27:41.183Z,0.00
2022-10-22T03:28:40.758Z,0.00
2022-10-22T03:29:40.727Z,0.00
2022-10-22T03:30:40.731Z,0.00
2022-10-22T03:31:40.721Z,0.00
2022-10-22T03:32:40.697Z,0.00
2022-10-22T03:33:40.689Z,0.00
2022-10-22T03:34:40.687Z,0.00
2022-10-22T03:35:40.661Z,0.00
2022-10-22T03:36:40.689Z,0.00
2022-10-22T03:37:40.962Z,0.00
2022-10-22T03:38:40.627Z,0.00
2022-10-22T03:39:40.611Z,0.00
2022-10-22T03:40:40.602Z,0.00
2022-10-22T03:41:40.587Z,0.00
2022-10-22T03:42:40.598Z,0.00
2022-10-22T03:43:40.567Z,0.00
2022-10-22T03:44:40.574Z,0.00
2022-10-22T03:45:40.546Z,0.00
2022-10-22T03:46:40.540Z,0.00
2022-10-22T03:47:40.825Z,0.00
2022-10-22T03:48:40.514Z,0.00
2022-10-22T03:49:40.500Z,0.00
2022-10-22T03:50:40.499Z,0.00
2022-10-22T03:51:40.470Z,0.00
2022-10-22T03:52:40.482Z,0.00
2022-10-22T03:53:40.460Z,0.00
2022-10-22T03:54:40.455Z,0.00
2022-10-22T03:55:40.430Z,0.00
2022-10-22T03:56:40.417Z,0.00
2022-10-22T03:57:40.780Z,0.00
2022-10-22T03:58:40.409Z,0.00
2022-10-22T03:59:40.378Z,0.00
2022-10-22T04:00:40.374Z,0.00
2022-10-22T04:01:40.353Z,0.00
2022-10-22T04:02:40.350Z,0.00
2022-10-22T04:03:40.348Z,0.00
2022-10-22T04:04:40.322Z,0.00
2022-10-22T04:05:40.353Z,0.00
2022-10-22T04:06:40.304Z,0.00
2022-10-22T04:07:40.767Z,0.00
2022-10-22T04:08:40.311Z,0.00
2022-10-22T04:09:40.263Z,0.00
2022-10-22T04:10:40.252Z,0.00
2022-10-22T04:11:40.239Z,0.00
2022-10-22T04:12:40.245Z,0.00
2022-10-22T04:13:40.225Z,0.00
2022-10-22T04:14:40.206Z,0.00
2022-10-22T04:15:40.250Z,0.00
2022-10-22T04:16:40.195Z,0.00
2022-10-22T04:17:40.391Z,0.00
2022-10-22T04:18:40.164Z,0.00
2022-10-22T04:19:40.146Z,0.00
2022-10-22T04:20:40.133Z,0.00
2022-10-22T04:21:40.115Z,0.00
2022-10-22T04:22:40.113Z,0.00
2022-10-22T04:23:40.122Z,0.00
2022-10-22T04:24:40.107Z,0.00
2022-10-22T04:25:40.076Z,0.00
2022-10-22T04:26:40.074Z,0.00
2022-10-22T04:27:40.379Z,0.00
2022-10-22T04:28:40.053Z,0.00
2022-10-22T04:29:40.032Z,0.00
2022-10-22T04:30:40.021Z,0.00
2022-10-22T04:31:40.006Z,0.00
2022-10-22T04:32:40.003Z,0.00
2022-10-22T04:33:40.002Z,0.00
2022-10-22T04:34:39.966Z,0.00
2022-10-22T04:35:39.995Z,0.00
2022-10-22T04:36:39.953Z,0.00
2022-10-22T04:37:40.155Z,0.00
2022-10-22T04:38:39.949Z,0.00
2022-10-22T04:39:39.908Z,0.00
2022-10-22T04:40:39.895Z,0.00
2022-10-22T04:41:39.892Z,0.00
2022-10-22T04:42:39.879Z,0.00
2022-10-22T04:43:39.889Z,0.00
2022-10-22T04:44:39.859Z,0.00
2022-10-22T04:45:39.838Z,0.00
2022-10-22T04:46:39.835Z,0.00
2022-10-22T04:47:40.210Z,0.00
2022-10-22T04:48:39.806Z,0.00
2022-10-22T04:49:39.797Z,0.00
2022-10-22T04:50:39.780Z,0.00
2022-10-22T04:51:39.764Z,0.00
2022-10-22T04:52:39.780Z,0.00
2022-10-22T04:53:39.750Z,0.00
2022-10-22T04:54:39.735Z,0.00
2022-10-22T04:55:39.717Z,0.00
2022-10-22T04:56:39.731Z,0.00
2022-10-22T04:57:40.023Z,0.00
2022-10-22T04:58:39.692Z,0.00
2022-10-22T04:59:39.679Z,0.00
2022-10-22T05:00:39.706Z,0.00
2022-10-22T05:01:42.726Z,0.00
2022-10-22T05:02:39.669Z,0.00
2022-10-22T05:03:39.631Z,0.00
2022-10-22T05:04:39.616Z,0.00
2022-10-22T05:05:39.609Z,0.00
2022-10-22T05:06:39.589Z,0.00
2022-10-22T05:07:39.822Z,0.00
2022-10-22T05:08:39.597Z,0.00
2022-10-22T05:09:39.558Z,0.00
2022-10-22T05:10:39.558Z,0.00
2022-10-22T05:11:39.533Z,0.00
2022-10-22T05:12:39.538Z,0.00
2022-10-22T05:13:39.511Z,0.00
2022-10-22T05:14:43.947Z,0.00
2022-10-22T05:15:40.497Z,0.00
2022-10-22T05:16:39.523Z,0.00
2022-10-22T05:17:39.766Z,0.00
2022-10-22T05:18:39.455Z,0.00
2022-10-22T05:19:39.471Z,0.00
2022-10-22T05:20:39.428Z,0.00
2022-10-22T05:21:39.414Z,0.00
2022-10-22T05:22:39.413Z,0.00
2022-10-22T05:23:39.391Z,0.00
2022-10-22T05:24:39.378Z,0.00
2022-10-22T05:25:39.375Z,0.00
2022-10-22T05:26:39.355Z,0.00
2022-10-22T05:27:39.657Z,0.00
2022-10-22T05:28:39.334Z,0.00
2022-10-22T05:29:39.319Z,0.00
2022-10-22T05:30:39.312Z,0.00
2022-10-22T05:31:39.303Z,0.00
2022-10-22T05:32:39.304Z,0.00
2022-10-22T05:33:39.286Z,0.00
2022-10-22T05:34:39.253Z,0.00
2022-10-22T05:35:39.255Z,0.00
2022-10-22T05:36:39.234Z,0.00
2022-10-22T05:37:39.393Z,0.00
2022-10-22T05:38:39.212Z,0.00
2022-10-22T05:39:39.204Z,4.00
2022-10-22T05:40:39.200Z,0.00
2022-10-22T05:41:39.185Z,4.00
2022-10-22T05:42:39.347Z,0.00
2022-10-22T05:43:39.164Z,4.00
2022-10-22T05:44:39.144Z,4.00
2022-10-22T05:45:39.145Z,4.00
2022-10-22T05:46:39.136Z,4.00
2022-10-22T05:47:39.139Z,4.00
2022-10-22T05:48:39.098Z,8.00
2022-10-22T05:49:39.086Z,8.00
2022-10-22T05:50:39.098Z,12.00
2022-10-22T05:51:39.056Z,12.00
2022-10-22T05:52:39.276Z,16.00
2022-10-22T05:53:39.056Z,16.00
2022-10-22T05:54:39.027Z,16.00
2022-10-22T05:55:39.009Z,20.00
2022-10-22T05:56:39.000Z,24.00
2022-10-22T05:57:38.999Z,24.00
2022-10-22T05:58:38.972Z,28.00
2022-10-22T05:59:39.075Z,28.00
2022-10-22T06:00:38.948Z,32.00
2022-10-22T06:01:38.951Z,36.00
2022-10-22T06:02:39.138Z,40.00
2022-10-22T06:03:38.922Z,44.00
2022-10-22T06:04:38.923Z,44.00
2022-10-22T06:05:38.918Z,48.00
2022-10-22T06:06:38.878Z,56.00
2022-10-22T06:07:38.877Z,60.00
2022-10-22T06:08:38.886Z,60.00
2022-10-22T06:09:38.867Z,72.00
2022-10-22T06:10:38.827Z,72.00
2022-10-22T06:11:38.819Z,80.00
2022-10-22T06:12:39.078Z,84.00
2022-10-22T06:13:38.807Z,92.00
2022-10-22T06:14:38.810Z,96.00
2022-10-22T06:15:38.782Z,104.00
2022-10-22T06:16:38.767Z,108.00
2022-10-22T06:17:38.758Z,116.00
2022-10-22T06:18:38.751Z,124.00
2022-10-22T06:19:38.731Z,132.00
2022-10-22T06:20:38.739Z,136.00
2022-10-22T06:21:38.710Z,144.00
2022-10-22T06:22:39.065Z,148.00
2022-10-22T06:23:38.690Z,160.00
2022-10-22T06:24:41.591Z,168.00
2022-10-22T06:25:39.684Z,176.00
2022-10-22T06:26:38.651Z,184.00
2022-10-22T06:27:38.632Z,200.00
2022-10-22T06:28:38.624Z,212.00
2022-10-22T06:29:38.610Z,236.00
2022-10-22T06:30:41.748Z,256.00
2022-10-22T06:31:39.599Z,276.00
2022-10-22T06:32:38.848Z,300.00
2022-10-22T06:33:38.572Z,332.00
2022-10-22T06:34:38.552Z,340.00
2022-10-22T06:35:38.550Z,340.00
2022-10-22T06:36:38.664Z,328.00
2022-10-22T06:37:38.767Z,316.00
2022-10-22T06:38:38.503Z,304.00
2022-10-22T06:39:38.502Z,288.00
2022-10-22T06:40:38.499Z,284.00
2022-10-22T06:41:38.483Z,284.00
2022-10-22T06:42:38.715Z,280.00
2022-10-22T06:43:38.461Z,284.00
2022-10-22T06:44:38.436Z,292.00
2022-10-22T06:45:38.434Z,304.00
2022-10-22T06:46:41.278Z,320.00
2022-10-22T06:47:39.840Z,320.00
2022-10-22T06:48:38.398Z,312.00
2022-10-22T06:49:38.385Z,288.00
2022-10-22T06:50:38.366Z,280.00
2022-10-22T06:51:38.368Z,284.00
2022-10-22T06:52:38.347Z,292.00
2022-10-22T06:53:38.333Z,292.00
2022-10-22T06:54:38.315Z,300.00
2022-10-22T06:55:38.313Z,312.00
2022-10-22T06:56:38.316Z,328.00
2022-10-22T06:57:38.669Z,348.00
2022-10-22T06:58:38.263Z,368.00
2022-10-22T06:59:38.263Z,392.00
2022-10-22T07:00:38.245Z,416.00
2022-10-22T07:01:38.299Z,436.00
2022-10-22T07:02:38.585Z,444.00
2022-10-22T07:03:38.218Z,444.00
2022-10-22T07:04:38.203Z,444.00
2022-10-22T07:05:38.188Z,452.00
2022-10-22T07:06:38.201Z,460.00
2022-10-22T07:07:38.166Z,476.00
2022-10-22T07:08:38.165Z,492.00
2022-10-22T07:09:38.145Z,528.00
2022-10-22T07:10:38.144Z,568.00
2022-10-22T07:11:38.120Z,632.00
2022-10-22T07:12:38.409Z,716.00
2022-10-22T07:13:38.104Z,724.00
2022-10-22T07:14:38.079Z,704.00
2022-10-22T07:15:38.074Z,672.00
2022-10-22T07:16:38.066Z,624.00
2022-10-22T07:17:38.046Z,592.00
2022-10-22T07:18:38.056Z,604.00
2022-10-22T07:19:38.026Z,656.00
2022-10-22T07:20:38.018Z,760.00
2022-10-22T07:21:37.997Z,812.00
2022-10-22T07:22:38.111Z,992.00
2022-10-22T07:23:38.009Z,1164.00
2022-10-22T07:24:37.978Z,2272.00
2022-10-22T07:25:37.954Z,1620.00
2022-10-22T07:26:37.934Z,1376.00
2022-10-22T07:27:38.150Z,4312.00
2022-10-22T07:28:37.916Z,3324.00
2022-10-22T07:29:37.935Z,3708.00
2022-10-22T07:30:37.889Z,6476.00
2022-10-22T07:31:37.890Z,6876.00
2022-10-22T07:32:37.868Z,6900.00
2022-10-22T07:33:37.858Z,7036.00
2022-10-22T07:34:40.549Z,7132.00
2022-10-22T07:35:38.847Z,7052.00
2022-10-22T07:36:37.822Z,7160.00
2022-10-22T07:37:37.978Z,7360.00
2022-10-22T07:38:37.813Z,7500.00
2022-10-22T07:39:37.794Z,7736.00
2022-10-22T07:40:37.778Z,5072.00
2022-10-22T07:41:37.798Z,3316.00
2022-10-22T07:42:37.760Z,2256.00
2022-10-22T07:43:37.768Z,2208.00
2022-10-22T07:44:37.732Z,1856.00
2022-10-22T07:45:37.731Z,1240.00
2022-10-22T07:46:37.716Z,1068.00
2022-10-22T07:47:37.958Z,1004.00
2022-10-22T07:48:37.692Z,1020.00
2022-10-22T07:49:37.683Z,992.00
2022-10-22T07:50:37.720Z,1020.00
2022-10-22T07:51:37.662Z,1204.00
2022-10-22T07:52:37.690Z,2360.00
2022-10-22T07:53:37.649Z,888.00
2022-10-22T07:54:37.636Z,4096.00
2022-10-22T07:55:37.599Z,4184.00
2022-10-22T07:56:37.594Z,3228.00
2022-10-22T07:57:37.576Z,1580.00
2022-10-22T07:58:37.581Z,1916.00
2022-10-22T07:59:37.554Z,7920.00
2022-10-22T08:00:37.539Z,3820.00
2022-10-22T08:01:37.568Z,3672.00
2022-10-22T08:02:37.561Z,2744.00
2022-10-22T08:03:37.524Z,2224.00
2022-10-22T08:04:37.486Z,3396.00
2022-10-22T08:05:37.489Z,3784.00
2022-10-22T08:06:37.479Z,2620.00
2022-10-22T08:07:37.467Z,1732.00
2022-10-22T08:08:37.516Z,1624.00
2022-10-22T08:09:37.439Z,1660.00
2022-10-22T08:10:37.427Z,1356.00
2022-10-22T08:13:45.098Z,1112.00
2022-10-22T08:14:40.537Z,1020.00
2022-10-22T08:15:40.572Z,952.00
2022-10-22T08:16:40.514Z,916.00
2022-10-22T08:17:40.805Z,896.00
2022-10-22T08:18:40.509Z,908.00
2022-10-22T08:19:40.526Z,904.00
2022-10-22T08:20:40.480Z,928.00
2022-10-22T08:21:40.502Z,952.00
2022-10-22T08:22:40.462Z,944.00
2022-10-22T08:23:40.455Z,988.00
2022-10-22T08:24:40.423Z,1032.00
2022-10-22T08:25:40.410Z,1040.00
2022-10-22T08:26:40.400Z,1028.00
2022-10-22T08:27:40.616Z,1036.00
2022-10-22T08:28:40.375Z,1028.00
2022-10-22T08:29:40.377Z,1012.00
2022-10-22T08:30:40.372Z,1012.00
2022-10-22T08:31:40.336Z,1040.00
2022-10-22T08:32:40.358Z,1060.00
2022-10-22T08:33:40.316Z,1048.00
2022-10-22T08:34:40.328Z,1024.00
2022-10-22T08:35:40.300Z,992.00
2022-10-22T08:36:40.293Z,1092.00
2022-10-22T08:37:40.450Z,1088.00
2022-10-22T08:38:40.264Z,1056.00
2022-10-22T08:39:40.263Z,1024.00
2022-10-22T08:40:40.310Z,1316.00
2022-10-22T08:41:40.225Z,1232.00
2022-10-22T08:42:40.414Z,1044.00
2022-10-22T08:43:40.199Z,976.00
2022-10-22T08:44:40.190Z,1160.00
2022-10-22T08:45:40.209Z,1172.00
2022-10-22T08:46:40.171Z,1196.00
2022-10-22T08:47:40.165Z,1160.00
2022-10-22T08:48:40.149Z,1224.00
2022-10-22T08:49:42.095Z,1092.00
2022-10-22T08:50:40.147Z,900.00
2022-10-22T08:51:40.111Z,884.00
2022-10-22T08:52:40.255Z,884.00
2022-10-22T08:53:40.084Z,980.00
2022-10-22T08:54:40.081Z,1156.00
2022-10-22T08:55:40.082Z,1040.00
2022-10-22T08:56:40.056Z,1156.00
2022-10-22T08:57:40.040Z,1224.00
2022-10-22T08:58:40.028Z,1200.00
2022-10-22T08:59:40.025Z,1192.00
2022-10-22T09:00:40.025Z,1148.00
2022-10-22T09:01:39.988Z,1428.00
2022-10-22T09:02:40.379Z,1108.00
2022-10-22T09:03:39.972Z,1168.00
2022-10-22T09:04:39.962Z,1144.00
2022-10-22T09:05:39.999Z,1096.00
2022-10-22T09:06:39.949Z,988.00
2022-10-22T09:07:40.196Z,952.00
2022-10-22T09:08:39.927Z,856.00
2022-10-22T09:09:39.895Z,828.00
2022-10-22T09:10:39.893Z,848.00
2022-10-22T09:11:39.895Z,884.00
2022-10-22T09:12:39.862Z,944.00
2022-10-22T09:13:39.848Z,864.00
2022-10-22T09:14:39.834Z,772.00
2022-10-22T09:15:42.609Z,740.00
2022-10-22T09:16:40.839Z,648.00
2022-10-22T09:17:40.107Z,712.00
2022-10-22T09:18:39.794Z,748.00
2022-10-22T09:19:39.780Z,832.00
2022-10-22T09:20:39.764Z,796.00
2022-10-22T09:21:39.775Z,736.00
2022-10-22T09:22:39.748Z,788.00
2022-10-22T09:23:39.735Z,668.00
2022-10-22T09:24:39.728Z,608.00
2022-10-22T09:25:39.713Z,552.00
2022-10-22T09:26:39.699Z,464.00
2022-10-22T09:27:40.179Z,396.00
2022-10-22T09:28:39.685Z,396.00
2022-10-22T09:29:39.656Z,396.00
2022-10-22T09:30:39.652Z,360.00
2022-10-22T09:31:39.645Z,344.00
2022-10-22T09:32:40.108Z,312.00
2022-10-22T09:33:39.623Z,312.00
2022-10-22T09:34:39.602Z,308.00
2022-10-22T09:35:39.598Z,316.00
2022-10-22T09:36:39.595Z,292.00
2022-10-22T09:37:39.588Z,312.00
2022-10-22T09:38:39.595Z,300.00
2022-10-22T09:39:39.547Z,292.00
2022-10-22T09:40:39.542Z,308.00
2022-10-22T09:41:39.546Z,284.00
2022-10-22T09:42:39.871Z,316.00
2022-10-22T09:43:39.528Z,344.00
2022-10-22T09:44:39.498Z,364.00
2022-10-22T09:45:39.485Z,368.00
2022-10-22T09:46:39.469Z,440.00
2022-10-22T09:47:43.675Z,428.00
2022-10-22T09:48:40.467Z,404.00
2022-10-22T09:49:39.449Z,420.00
2022-10-22T09:50:39.421Z,476.00
2022-10-22T09:51:39.432Z,600.00
2022-10-22T09:52:39.761Z,616.00
2022-10-22T09:53:39.414Z,624.00
2022-10-22T09:54:39.391Z,604.00
2022-10-22T09:55:39.374Z,612.00
2022-10-22T09:56:39.365Z,632.00
2022-10-22T09:57:42.233Z,564.00
2022-10-22T09:58:39.340Z,576.00
2022-10-22T09:59:39.361Z,624.00
2022-10-22T10:00:39.314Z,616.00
2022-10-22T10:01:39.304Z,588.00
2022-10-22T10:02:39.368Z,580.00
2022-10-22T10:03:39.269Z,556.00
2022-10-22T10:04:39.272Z,580.00
2022-10-22T10:05:39.249Z,592.00
2022-10-22T10:06:39.236Z,664.00
2022-10-22T10:07:39.539Z,684.00
2022-10-22T10:08:39.308Z,700.00
2022-10-22T10:09:39.190Z,628.00
2022-10-22T10:10:39.214Z,632.00
2022-10-22T10:11:39.192Z,672.00
2022-10-22T10:12:39.232Z,696.00
2022-10-22T10:13:39.158Z,604.00
2022-10-22T10:14:39.145Z,568.00
2022-10-22T10:15:39.138Z,616.00
2022-10-22T10:16:39.145Z,684.00
2022-10-22T10:17:39.524Z,600.00
2022-10-22T10:18:39.105Z,548.00
2022-10-22T10:19:39.090Z,512.00
2022-10-22T10:20:39.092Z,484.00
2022-10-22T10:21:39.071Z,448.00
2022-10-22T10:22:39.406Z,492.00
2022-10-22T10:24:30.206Z,540.00
2022-10-22T10:25:30.193Z,536.00
2022-10-22T10:26:30.192Z,512.00
2022-10-22T10:27:30.209Z,508.00
2022-10-22T10:28:30.169Z,540.00
2022-10-22T10:29:30.217Z,556.00
2022-10-22T10:30:30.136Z,548.00
2022-10-22T10:31:30.146Z,600.00
2022-10-22T10:32:30.116Z,652.00
2022-10-22T10:33:30.124Z,580.00
2022-10-22T10:34:30.094Z,640.00
2022-10-22T10:35:30.087Z,580.00
2022-10-22T10:36:30.064Z,524.00
2022-10-22T10:37:30.057Z,472.00
2022-10-22T10:38:30.062Z,440.00
2022-10-22T10:39:30.047Z,436.00
2022-10-22T10:40:30.023Z,404.00
2022-10-22T10:41:30.013Z,384.00
2022-10-22T10:42:30.015Z,404.00
2022-10-22T10:43:30.394Z,480.00
2022-10-22T10:44:29.997Z,468.00
2022-10-22T10:45:29.981Z,428.00
2022-10-22T10:46:32.181Z,396.00
2022-10-22T10:47:29.966Z,472.00
2022-10-22T10:48:29.937Z,476.00
2022-10-22T10:49:29.928Z,508.00
2022-10-22T10:50:29.958Z,536.00
2022-10-22T10:51:29.920Z,496.00
2022-10-22T10:52:29.887Z,500.00
2022-10-22T10:53:29.882Z,552.00
2022-10-22T10:54:29.960Z,548.00
2022-10-22T10:55:29.881Z,540.00
2022-10-22T10:56:29.846Z,600.00
2022-10-22T10:57:29.840Z,608.00
2022-10-22T10:58:29.814Z,604.00
2022-10-22T10:59:29.820Z,604.00
2022-10-22T11:00:29.804Z,648.00
2022-10-22T11:01:29.829Z,684.00
2022-10-22T11:02:29.768Z,692.00
2022-10-22T11:03:29.765Z,724.00
2022-10-22T11:04:29.742Z,808.00
2022-10-22T11:05:29.773Z,884.00
2022-10-22T11:06:29.717Z,864.00
2022-10-22T11:07:34.733Z,864.00
2022-10-22T11:08:30.904Z,796.00
2022-10-22T11:09:29.704Z,804.00
2022-10-22T11:10:29.684Z,860.00
2022-10-22T11:11:29.682Z,884.00
2022-10-22T11:12:29.653Z,868.00
2022-10-22T11:13:29.638Z,876.00
2022-10-22T11:14:30.186Z,808.00
2022-10-22T11:15:29.629Z,744.00
2022-10-22T11:16:29.623Z,712.00
2022-10-22T11:17:29.598Z,708.00
2022-10-22T11:18:29.583Z,692.00
2022-10-22T11:19:46.505Z,716.00
2022-10-22T11:20:30.553Z,756.00
2022-10-22T11:21:29.563Z,764.00
2022-10-22T11:22:29.535Z,808.00
2022-10-22T11:23:29.524Z,880.00
2022-10-22T11:24:29.508Z,916.00
2022-10-22T11:25:29.512Z,908.00
2022-10-22T11:26:29.503Z,944.00
2022-10-22T11:27:29.486Z,944.00
2022-10-22T11:28:29.465Z,928.00
2022-10-22T11:29:32.073Z,952.00
2022-10-22T11:30:29.438Z,960.00
2022-10-22T11:31:29.435Z,956.00
2022-10-22T11:32:29.431Z,976.00
2022-10-22T11:33:29.405Z,936.00
2022-10-22T11:34:33.583Z,896.00
2022-10-22T11:35:29.382Z,876.00
2022-10-22T11:36:29.389Z,904.00
2022-10-22T11:37:29.368Z,840.00
2022-10-22T11:38:32.788Z,748.00
2022-10-22T11:39:30.327Z,744.00
2022-10-22T11:40:29.326Z,704.00
2022-10-22T11:41:29.326Z,648.00
2022-10-22T11:42:29.296Z,644.00
2022-10-22T11:43:29.293Z,660.00
2022-10-22T11:44:29.282Z,632.00
2022-10-22T11:45:29.266Z,648.00
2022-10-22T11:46:29.252Z,776.00
2022-10-22T11:47:29.256Z,760.00
2022-10-22T11:48:29.221Z,760.00
2022-10-22T11:49:29.213Z,728.00
2022-10-22T11:50:29.214Z,596.00
2022-10-22T11:51:29.229Z,580.00
2022-10-22T11:52:29.179Z,544.00
2022-10-22T11:53:29.170Z,532.00
2022-10-22T11:54:29.166Z,492.00
2022-10-22T11:55:29.156Z,520.00
2022-10-22T11:56:29.155Z,460.00
2022-10-22T11:57:29.129Z,460.00
2022-10-22T11:58:29.123Z,460.00
2022-10-22T11:59:29.103Z,508.00
2022-10-22T12:00:29.092Z,508.00
2022-10-22T12:01:29.126Z,508.00
2022-10-22T12:02:29.084Z,432.00
2022-10-22T12:03:29.073Z,412.00
2022-10-22T12:04:29.100Z,456.00
2022-10-22T12:05:29.038Z,556.00
2022-10-22T12:06:29.043Z,564.00
2022-10-22T12:07:29.013Z,632.00
2022-10-22T12:08:29.001Z,748.00
2022-10-22T12:09:28.993Z,944.00
2022-10-22T12:10:28.971Z,1012.00
2022-10-22T12:11:28.986Z,976.00
2022-10-22T12:12:28.954Z,940.00
2022-10-22T12:13:28.952Z,912.00
2022-10-22T12:14:28.932Z,888.00
2022-10-22T12:15:28.921Z,844.00
2022-10-22T12:16:37.917Z,736.00
2022-10-22T12:17:29.915Z,720.00
2022-10-22T12:18:28.884Z,568.00
2022-10-22T12:19:28.874Z,680.00
2022-10-22T12:20:28.862Z,560.00
2022-10-22T12:21:28.868Z,500.00
2022-10-22T12:22:28.838Z,508.00
2022-10-22T12:23:28.831Z,504.00
2022-10-22T12:24:28.813Z,500.00
2022-10-22T12:25:33.362Z,572.00
2022-10-22T12:27:28.771Z,500.00
2022-10-22T12:28:28.761Z,512.00
2022-10-22T12:29:28.754Z,556.00
2022-10-22T12:30:28.735Z,596.00
2022-10-22T12:31:28.735Z,580.00
2022-10-22T12:32:28.742Z,736.00
2022-10-22T12:33:28.710Z,636.00
2022-10-22T12:34:28.697Z,672.00
2022-10-22T12:35:28.693Z,660.00
2022-10-22T12:36:28.688Z,664.00
2022-10-22T12:37:28.670Z,668.00
2022-10-22T12:38:28.647Z,604.00
2022-10-22T12:39:28.642Z,624.00
2022-10-22T12:40:28.628Z,588.00
2022-10-22T12:41:28.631Z,556.00
2022-10-22T12:42:28.607Z,504.00
2022-10-22T12:43:28.600Z,524.00
2022-10-22T12:44:28.583Z,504.00
2022-10-22T12:45:28.573Z,528.00
2022-10-22T12:46:28.550Z,548.00
2022-10-22T12:47:28.567Z,592.00
2022-10-22T12:48:28.533Z,600.00
2022-10-22T12:49:28.520Z,628.00
2022-10-22T12:50:28.525Z,636.00
2022-10-22T12:51:28.555Z,624.00
2022-10-22T12:52:28.490Z,580.00
2022-10-22T12:53:28.508Z,556.00
2022-10-22T12:54:28.461Z,572.00